createdAt,value
2022-09-11T00:00:53.019Z,1.43
2022-09-11T00:03:22.258Z,1.70
2022-09-11T00:05:49.995Z,1.70
2022-09-11T00:08:19.724Z,1.80
2022-09-11T00:10:49.292Z,1.80
2022-09-11T00:13:21.316Z,1.90
2022-09-11T00:15:51.274Z,2.00
2022-09-11T00:18:22.354Z,2.00
2022-09-11T00:20:51.507Z,1.80
2022-09-11T00:23:19.571Z,1.90
2022-09-11T00:25:49.552Z,2.23
2022-09-11T00:28:20.205Z,1.70
2022-09-11T00:30:48.676Z,1.80
2022-09-11T00:33:16.928Z,2.00
2022-09-11T00:35:54.519Z,1.57
2022-09-11T00:38:22.115Z,1.40
2022-09-11T00:40:51.805Z,1.80
2022-09-11T00:43:19.873Z,1.80
2022-09-11T00:45:54.472Z,1.93
2022-09-11T00:48:26.334Z,1.67
2022-09-11T00:50:55.721Z,1.63
2022-09-11T00:53:26.286Z,1.90
2022-09-11T00:55:59.383Z,2.00
2022-09-11T00:58:31.262Z,1.77
2022-09-11T01:00:59.256Z,2.00
2022-09-11T01:03:27.967Z,1.83
2022-09-11T01:05:56.069Z,1.70
2022-09-11T01:08:23.733Z,2.13
2022-09-11T01:11:03.308Z,1.93
2022-09-11T01:13:37.611Z,1.83
2022-09-11T01:16:14.022Z,1.80
2022-09-11T01:18:50.684Z,1.77
2022-09-11T01:21:52.538Z,1.80
2022-09-11T01:24:52.414Z,1.87
2022-09-11T01:27:39.789Z,1.80
2022-09-11T01:30:11.966Z,1.73
2022-09-11T01:32:50.818Z,2.10
2022-09-11T01:35:27.219Z,1.90
2022-09-11T01:37:58.217Z,1.63
2022-09-11T01:40:29.543Z,1.90
2022-09-11T01:43:07.055Z,2.30
2022-09-11T01:45:37.197Z,2.07
2022-09-11T01:48:08.939Z,2.10
2022-09-11T01:50:40.937Z,1.93
2022-09-11T01:53:12.837Z,1.90
2022-09-11T01:55:44.147Z,2.00
2022-09-11T01:58:17.446Z,2.07
2022-09-11T02:00:49.784Z,2.03
2022-09-11T02:03:22.537Z,2.00
2022-09-11T02:05:56.302Z,2.47
2022-09-11T02:08:28.821Z,2.10
2022-09-11T02:11:03.499Z,2.17
2022-09-11T02:13:38.306Z,2.10
2022-09-11T02:16:10.167Z,2.67
2022-09-11T02:18:45.991Z,2.37
2022-09-11T02:21:13.790Z,2.03
2022-09-11T02:23:42.351Z,2.50
2022-09-11T02:26:12.038Z,2.30
2022-09-11T02:28:41.333Z,2.60
2022-09-11T02:31:09.024Z,2.63
2022-09-11T02:33:38.572Z,2.20
2022-09-11T02:36:32.798Z,2.47
2022-09-11T02:39:15.394Z,2.80
2022-09-11T02:41:52.829Z,3.20
2022-09-11T02:44:34.958Z,2.87
2022-09-11T02:47:12.194Z,2.77
2022-09-11T02:49:51.505Z,2.40
2022-09-11T02:52:30.698Z,2.50
2022-09-11T02:55:08.015Z,2.83
2022-09-11T02:57:42.511Z,2.90
2022-09-11T03:00:13.413Z,2.57
2022-09-11T03:02:44.147Z,3.10
2022-09-11T03:05:13.445Z,2.60
2022-09-11T03:07:41.009Z,2.50
2022-09-11T03:10:11.509Z,3.00
2022-09-11T03:12:39.777Z,3.07
2022-09-11T03:15:09.557Z,3.17
2022-09-11T03:17:38.618Z,2.70
2022-09-11T03:20:07.272Z,3.40
2022-09-11T03:22:34.871Z,3.17
2022-09-11T03:25:02.885Z,3.17
2022-09-11T03:27:30.458Z,3.97
2022-09-11T03:29:58.595Z,3.53
2022-09-11T03:32:26.202Z,3.70
2022-09-11T03:34:55.145Z,3.77
2022-09-11T03:37:22.732Z,3.93
2022-09-11T03:39:50.355Z,4.30
2022-09-11T03:42:17.959Z,4.90
2022-09-11T03:44:45.641Z,3.93
2022-09-11T03:47:13.904Z,4.43
2022-09-11T03:49:41.512Z,4.43
2022-09-11T03:52:10.437Z,4.47
2022-09-11T03:54:39.324Z,4.67
2022-09-11T03:57:06.981Z,4.13
2022-09-11T03:59:34.608Z,5.27
2022-09-11T04:02:02.249Z,5.40
2022-09-11T04:04:29.868Z,5.10
2022-09-11T04:06:57.455Z,5.47
2022-09-11T04:09:26.778Z,4.17
2022-09-11T04:11:54.425Z,5.17
2022-09-11T04:14:22.772Z,4.83
2022-09-11T04:16:50.497Z,4.53
2022-09-11T04:19:18.765Z,4.70
2022-09-11T04:21:46.398Z,4.60
2022-09-11T04:24:15.297Z,4.47
2022-09-11T04:26:44.194Z,4.50
2022-09-11T04:29:11.793Z,4.90
2022-09-11T04:31:41.165Z,4.47
2022-09-11T04:34:09.521Z,4.93
2022-09-11T04:36:37.198Z,4.80
2022-09-11T04:39:05.115Z,4.57
2022-09-11T04:41:32.695Z,4.37
2022-09-11T04:44:05.172Z,4.50
2022-09-11T04:46:34.386Z,5.57
2022-09-11T04:49:02.168Z,4.90
2022-09-11T04:51:32.160Z,4.90
2022-09-11T04:54:00.801Z,5.23
2022-09-11T04:56:30.072Z,4.37
2022-09-11T04:59:02.318Z,5.27
2022-09-11T05:01:32.109Z,4.93
2022-09-11T05:04:01.739Z,4.67
2022-09-11T05:06:30.350Z,4.60
2022-09-11T05:09:02.408Z,4.83
2022-09-11T05:11:30.478Z,5.07
2022-09-11T05:13:59.852Z,4.50
2022-09-11T05:16:30.397Z,4.07
2022-09-11T05:18:59.058Z,4.97
2022-09-11T05:21:28.282Z,4.73
2022-09-11T05:23:58.597Z,4.80
2022-09-11T05:26:27.961Z,4.70
2022-09-11T05:28:56.355Z,5.00
2022-09-11T05:31:26.351Z,5.10
2022-09-11T05:33:57.008Z,4.23
2022-09-11T05:36:25.117Z,4.90
2022-09-11T05:38:53.720Z,5.00
2022-09-11T05:41:21.730Z,5.10
2022-09-11T05:43:49.691Z,5.23
2022-09-11T05:46:19.005Z,5.30
2022-09-11T05:48:46.998Z,5.20
2022-09-11T05:51:18.475Z,5.70
2022-09-11T05:53:47.054Z,4.93
2022-09-11T05:56:16.798Z,5.40
2022-09-11T05:58:46.125Z,4.87
2022-09-11T06:01:15.156Z,5.00
2022-09-11T06:03:43.559Z,4.80
2022-09-11T06:06:13.719Z,5.10
2022-09-11T06:08:44.068Z,4.33
2022-09-11T06:11:13.767Z,4.50
2022-09-11T06:13:43.121Z,4.23
2022-09-11T06:16:15.963Z,4.83
2022-09-11T06:18:48.979Z,4.03
2022-09-11T06:21:20.045Z,4.00
2022-09-11T06:23:50.130Z,4.50
2022-09-11T06:26:21.266Z,5.07
2022-09-11T06:28:50.746Z,4.40
2022-09-11T06:31:20.146Z,3.80
2022-09-11T06:33:48.353Z,4.70
2022-09-11T06:36:18.336Z,4.30
2022-09-11T06:38:46.556Z,4.33
2022-09-11T06:41:17.113Z,4.30
2022-09-11T06:43:45.286Z,4.60
2022-09-11T06:46:14.877Z,4.50
2022-09-11T06:48:43.403Z,4.50
2022-09-11T06:51:12.888Z,4.17
2022-09-11T06:53:41.452Z,4.67
2022-09-11T06:56:12.289Z,4.53
2022-09-11T06:58:41.687Z,5.20
2022-09-11T07:01:12.214Z,5.43
2022-09-11T07:03:45.348Z,5.23
2022-09-11T07:06:14.268Z,4.97
2022-09-11T07:08:42.083Z,6.63
2022-09-11T07:11:11.529Z,5.10
2022-09-11T07:13:39.663Z,5.03
2022-09-11T07:16:12.663Z,4.90
2022-09-11T07:18:42.119Z,5.23
2022-09-11T07:21:12.216Z,4.50
2022-09-11T07:23:40.968Z,5.20
2022-09-11T07:26:11.579Z,4.53
2022-09-11T07:28:39.807Z,5.40
2022-09-11T07:31:11.727Z,5.00
2022-09-11T07:33:42.696Z,4.83
2022-09-11T07:36:11.813Z,4.93
2022-09-11T07:38:40.991Z,5.87
2022-09-11T07:41:09.775Z,5.67
2022-09-11T07:43:37.824Z,4.87
2022-09-11T07:46:07.182Z,5.07
2022-09-11T07:48:37.099Z,5.20
2022-09-11T07:51:07.217Z,6.93
2022-09-11T07:53:35.784Z,5.40
2022-09-11T07:56:04.759Z,7.23
2022-09-11T07:58:36.413Z,6.37
2022-09-11T08:01:05.298Z,5.50
2022-09-11T08:03:34.314Z,5.53
2022-09-11T08:06:05.505Z,4.53
2022-09-11T08:08:33.240Z,5.40
2022-09-11T08:11:05.130Z,5.50
2022-09-11T08:13:33.303Z,5.23
2022-09-11T08:16:01.332Z,6.33
2022-09-11T08:18:29.251Z,5.00
2022-09-11T08:21:04.428Z,4.93
2022-09-11T08:23:33.256Z,5.00
2022-09-11T08:26:06.407Z,4.90
2022-09-11T08:28:35.253Z,5.13
2022-09-11T08:31:02.964Z,5.10
2022-09-11T08:33:31.032Z,4.80
2022-09-11T08:35:59.536Z,5.33
2022-09-11T08:38:29.300Z,4.60
2022-09-11T08:40:59.942Z,5.33
2022-09-11T08:43:32.577Z,7.20
2022-09-11T08:46:04.971Z,7.33
2022-09-11T08:48:41.235Z,7.30
2022-09-11T08:51:10.937Z,6.40
2022-09-11T08:53:40.044Z,5.80
2022-09-11T08:56:12.798Z,5.70
2022-09-11T08:58:49.466Z,6.47
2022-09-11T09:01:25.703Z,6.90
2022-09-11T09:04:11.085Z,7.40
2022-09-11T09:06:55.209Z,7.47
2022-09-11T09:09:35.257Z,7.93
2022-09-11T09:12:09.629Z,7.60
2022-09-11T09:15:13.738Z,7.17
2022-09-11T09:17:45.562Z,6.50
2022-09-11T09:20:21.255Z,6.93
2022-09-11T09:22:52.296Z,6.40
2022-09-11T09:25:23.534Z,7.22
2022-09-11T09:27:55.989Z,6.57
2022-09-11T09:30:27.338Z,6.55
2022-09-11T09:33:01.354Z,7.32
2022-09-11T09:35:39.518Z,6.70
2022-09-11T09:38:12.866Z,7.18
2022-09-11T09:40:50.091Z,6.15
2022-09-11T09:43:30.308Z,5.80
2022-09-11T09:46:11.379Z,5.22
2022-09-11T09:48:40.888Z,4.93
2022-09-11T09:51:13.306Z,4.93
2022-09-11T09:53:44.406Z,6.03
2022-09-11T09:56:17.289Z,5.68
2022-09-11T09:58:55.568Z,6.18
2022-09-11T10:01:46.820Z,6.50
2022-09-11T10:04:17.908Z,6.78
2022-09-11T10:06:47.388Z,7.05
2022-09-11T10:09:26.844Z,6.03
2022-09-11T10:12:02.932Z,6.53
2022-09-11T10:17:23.489Z,6.75
2022-09-11T10:19:54.744Z,5.95
2022-09-11T10:22:25.542Z,5.70
2022-09-11T10:25:00.497Z,5.53
2022-09-11T10:27:31.475Z,5.35
2022-09-11T10:30:00.526Z,5.75
2022-09-11T10:32:29.151Z,5.75
2022-09-11T10:34:57.717Z,4.88
2022-09-11T10:37:27.543Z,4.20
2022-09-11T10:40:08.986Z,4.23
2022-09-11T10:42:38.620Z,3.83
2022-09-11T10:45:13.814Z,4.30
2022-09-11T10:47:41.982Z,4.30
2022-09-11T10:50:22.412Z,4.50
2022-09-11T10:52:59.911Z,3.80
2022-09-11T10:55:31.744Z,3.80
2022-09-11T10:58:06.992Z,4.07
2022-09-11T11:00:35.814Z,3.83
2022-09-11T11:03:06.804Z,4.30
2022-09-11T11:05:46.236Z,4.35
2022-09-11T11:08:34.704Z,3.63
2022-09-11T11:11:17.996Z,3.83
2022-09-11T11:14:13.242Z,3.60
2022-09-11T11:16:52.434Z,4.22
2022-09-11T11:19:38.783Z,3.80
2022-09-11T11:22:14.816Z,4.10
2022-09-11T11:24:58.094Z,4.15
2022-09-11T11:27:40.598Z,3.78
2022-09-11T11:30:17.737Z,3.40
2022-09-11T11:33:03.954Z,3.50
2022-09-11T11:35:37.228Z,3.40
2022-09-11T11:38:12.041Z,3.47
2022-09-11T11:40:48.125Z,3.53
2022-09-11T11:43:18.418Z,3.38
2022-09-11T11:45:52.110Z,3.45
2022-09-11T11:48:25.296Z,3.67
2022-09-11T11:50:55.432Z,3.50
2022-09-11T11:53:26.681Z,3.35
2022-09-11T11:56:03.852Z,3.10
2022-09-11T11:58:42.938Z,3.40
2022-09-11T12:01:20.126Z,3.22
2022-09-11T12:03:56.504Z,2.92
2022-09-11T12:06:24.300Z,2.90
2022-09-11T12:08:51.927Z,2.47
2022-09-11T12:11:29.750Z,2.90
2022-09-11T12:13:58.880Z,3.00
2022-09-11T12:16:31.745Z,2.65
2022-09-11T12:19:08.486Z,2.70
2022-09-11T12:21:41.397Z,2.90
2022-09-11T12:24:21.131Z,3.00
2022-09-11T12:27:11.756Z,3.03
2022-09-11T12:29:54.206Z,3.03
2022-09-11T12:32:42.898Z,2.80
2022-09-11T12:35:20.386Z,5.07
2022-09-11T12:37:55.734Z,3.40
2022-09-11T12:40:34.113Z,3.15
2022-09-11T12:43:27.384Z,3.90
2022-09-11T12:45:56.822Z,4.05
2022-09-11T12:48:38.894Z,3.55
2022-09-11T12:51:08.354Z,3.13
2022-09-11T12:53:38.704Z,3.10
2022-09-11T12:56:08.423Z,3.10
2022-09-11T12:58:40.612Z,3.05
2022-09-11T13:01:23.732Z,5.25
2022-09-11T13:04:00.919Z,3.72
2022-09-11T13:06:41.841Z,3.17
2022-09-11T13:09:20.179Z,6.22
2022-09-11T13:11:50.139Z,4.22
2022-09-11T13:14:47.885Z,4.85
2022-09-11T13:17:25.679Z,5.10
2022-09-11T13:20:10.505Z,5.30
2022-09-11T13:22:39.318Z,5.57
2022-09-11T13:25:12.357Z,4.45
2022-09-11T13:27:42.551Z,3.42
2022-09-11T13:30:14.493Z,3.10
2022-09-11T13:32:42.991Z,3.97
2022-09-11T13:35:16.947Z,3.17
2022-09-11T13:37:47.194Z,3.08
2022-09-11T13:40:20.761Z,2.80
2022-09-11T13:42:49.829Z,4.13
2022-09-11T13:45:20.160Z,3.45
2022-09-11T13:47:47.864Z,3.38
2022-09-11T13:50:20.806Z,3.40
2022-09-11T13:52:50.255Z,4.30
2022-09-11T13:55:20.240Z,3.55
2022-09-11T13:57:57.434Z,3.35
2022-09-11T14:00:39.406Z,3.67
2022-09-11T14:03:07.808Z,3.22
2022-09-11T14:05:36.751Z,3.00
2022-09-11T14:08:07.573Z,3.38
2022-09-11T14:10:46.958Z,3.10
2022-09-11T14:13:18.583Z,3.45
2022-09-11T14:15:51.876Z,3.03
2022-09-11T14:18:29.574Z,3.22
2022-09-11T14:21:01.264Z,3.15
2022-09-11T14:23:31.238Z,3.40
2022-09-11T14:26:07.756Z,3.50
2022-09-11T14:28:43.028Z,3.65
2022-09-11T14:31:14.321Z,3.90
2022-09-11T14:33:42.333Z,2.95
2022-09-11T14:36:19.000Z,3.75
2022-09-11T14:38:48.121Z,3.20
2022-09-11T14:41:16.680Z,3.25
2022-09-11T14:43:47.753Z,3.03
2022-09-11T14:46:17.047Z,3.00
2022-09-11T14:48:44.805Z,2.92
2022-09-11T14:51:13.951Z,4.10
2022-09-11T14:53:43.917Z,4.35
2022-09-11T14:56:11.693Z,4.03
2022-09-11T14:58:39.295Z,4.03
2022-09-11T15:01:07.179Z,4.70
2022-09-11T15:03:35.026Z,4.30
2022-09-11T15:06:02.711Z,5.07
2022-09-11T15:08:31.628Z,4.45
2022-09-11T15:10:59.259Z,4.72
2022-09-11T15:13:27.219Z,5.50
2022-09-11T15:15:56.059Z,5.53
2022-09-11T15:18:25.545Z,5.10
2022-09-11T15:20:54.818Z,4.88
2022-09-11T15:23:22.381Z,5.28
2022-09-11T15:25:57.361Z,4.38
2022-09-11T15:28:24.913Z,5.20
2022-09-11T15:30:59.862Z,4.70
2022-09-11T15:33:27.918Z,4.85
2022-09-11T15:35:57.083Z,4.57
2022-09-11T15:38:25.035Z,4.70
2022-09-11T15:40:56.796Z,4.68
2022-09-11T15:43:24.663Z,4.35
2022-09-11T15:45:52.583Z,5.00
2022-09-11T15:48:21.295Z,4.80
2022-09-11T15:51:00.064Z,4.23
2022-09-11T15:53:27.986Z,5.00
2022-09-11T15:56:05.104Z,4.67
2022-09-11T15:58:34.109Z,5.00
2022-09-11T16:01:02.797Z,5.15
2022-09-11T16:03:31.209Z,4.75
2022-09-11T16:06:00.858Z,11.53
2022-09-11T16:08:28.880Z,32.17
2022-09-11T16:10:56.485Z,10.33
2022-09-11T16:13:25.460Z,6.40
2022-09-11T16:16:03.583Z,5.72
2022-09-11T16:18:31.612Z,6.17
2022-09-11T16:20:59.684Z,6.13
2022-09-11T16:23:28.065Z,5.50
2022-09-11T16:25:55.781Z,4.50
2022-09-11T16:28:25.182Z,5.70
2022-09-11T16:30:53.846Z,4.90
2022-09-11T16:33:22.897Z,5.20
2022-09-11T16:36:00.040Z,4.90
2022-09-11T16:38:29.018Z,5.33
2022-09-11T16:41:09.316Z,4.60
2022-09-11T16:43:38.555Z,4.88
2022-09-11T16:46:08.559Z,4.73
2022-09-11T16:48:36.980Z,4.53
2022-09-11T16:51:05.677Z,5.37
2022-09-11T16:53:35.218Z,7.90
2022-09-11T16:56:05.393Z,6.20
2022-09-11T16:58:34.114Z,8.03
2022-09-11T17:01:06.342Z,5.43
2022-09-11T17:03:36.216Z,5.00
2022-09-11T17:06:08.033Z,4.80
2022-09-11T17:08:39.148Z,4.77
2022-09-11T17:11:09.689Z,9.47
2022-09-11T17:13:37.629Z,9.03
2022-09-11T17:16:11.564Z,6.90
2022-09-11T17:18:47.259Z,6.07
2022-09-11T17:21:15.351Z,4.63
2022-09-11T17:23:43.107Z,5.00
2022-09-11T17:26:12.774Z,4.90
2022-09-11T17:28:41.791Z,4.50
2022-09-11T17:31:13.465Z,3.97
2022-09-11T17:33:41.575Z,4.90
2022-09-11T17:36:10.943Z,4.97
2022-09-11T17:38:40.207Z,6.00
2022-09-11T17:41:09.241Z,5.40
2022-09-11T17:43:37.666Z,5.17
2022-09-11T17:46:07.924Z,4.87
2022-09-11T17:48:37.541Z,5.20
2022-09-11T17:51:07.496Z,5.37
2022-09-11T17:53:38.524Z,5.23
2022-09-11T17:56:09.680Z,4.77
2022-09-11T17:58:37.468Z,4.63
2022-09-11T18:01:06.096Z,5.30
2022-09-11T18:03:35.223Z,5.20
2022-09-11T18:06:06.674Z,5.37
2022-09-11T18:08:34.402Z,5.07
2022-09-11T18:11:03.055Z,5.93
2022-09-11T18:13:32.330Z,6.13
2022-09-11T18:15:59.893Z,5.90
2022-09-11T18:18:27.882Z,5.87
2022-09-11T18:20:55.855Z,5.67
2022-09-11T18:23:25.275Z,6.07
2022-09-11T18:25:52.922Z,6.90
2022-09-11T18:28:20.750Z,5.67
2022-09-11T18:30:49.824Z,7.37
2022-09-11T18:33:17.584Z,6.70
2022-09-11T18:35:46.561Z,6.37
2022-09-11T18:38:14.134Z,7.20
2022-09-11T18:40:43.155Z,6.83
2022-09-11T18:43:10.749Z,6.57
2022-09-11T18:45:38.312Z,6.90
2022-09-11T18:48:06.202Z,7.13
2022-09-11T18:50:36.499Z,6.90
2022-09-11T18:53:04.131Z,7.20
2022-09-11T18:55:31.722Z,7.40
2022-09-11T18:58:00.640Z,7.23
2022-09-11T19:00:29.624Z,7.60
2022-09-11T19:02:57.319Z,6.80
2022-09-11T19:05:26.216Z,7.50
2022-09-11T19:07:55.121Z,6.53
2022-09-11T19:10:22.773Z,7.40
2022-09-11T19:12:50.342Z,7.60
2022-09-11T19:15:19.483Z,6.97
2022-09-11T19:17:47.987Z,8.13
2022-09-11T19:20:17.313Z,7.90
2022-09-11T19:22:44.891Z,8.40
2022-09-11T19:25:12.551Z,8.33
2022-09-11T19:27:40.155Z,8.77
2022-09-11T19:30:08.637Z,8.13
2022-09-11T19:32:37.615Z,7.13
2022-09-11T19:35:06.113Z,7.93
2022-09-11T19:37:33.962Z,7.70
2022-09-11T19:40:01.619Z,7.80
2022-09-11T19:42:29.229Z,7.57
2022-09-11T19:44:56.797Z,8.17
2022-09-11T19:47:25.016Z,7.57
2022-09-11T19:49:54.031Z,7.93
2022-09-11T19:52:21.613Z,7.73
2022-09-11T19:54:49.277Z,7.70
2022-09-11T19:57:19.598Z,7.80
2022-09-11T19:59:47.176Z,8.57
2022-09-11T20:02:14.926Z,8.07
2022-09-11T20:04:42.524Z,8.77
2022-09-11T20:07:11.666Z,8.40
2022-09-11T20:09:40.256Z,8.17
2022-09-11T20:12:08.081Z,8.27
2022-09-11T20:14:38.384Z,7.70
2022-09-11T20:17:10.169Z,8.43
2022-09-11T20:19:37.791Z,9.17
2022-09-11T20:22:05.474Z,8.20
2022-09-11T20:24:34.445Z,8.73
2022-09-11T20:27:02.010Z,9.93
2022-09-11T20:29:29.602Z,9.27
2022-09-11T20:31:57.209Z,9.87
2022-09-11T20:34:27.892Z,8.70
2022-09-11T20:36:56.580Z,9.73
2022-09-11T20:39:24.300Z,9.00
2022-09-11T20:41:53.263Z,8.93
2022-09-11T20:44:20.814Z,8.40
2022-09-11T20:46:48.443Z,9.77
2022-09-11T20:49:16.146Z,10.00
2022-09-11T20:51:44.369Z,9.93
2022-09-11T20:54:12.082Z,10.30
2022-09-11T20:56:39.729Z,9.50
2022-09-11T20:59:09.021Z,8.97
2022-09-11T21:01:36.801Z,9.00
2022-09-11T21:04:05.213Z,8.17
2022-09-11T21:06:35.032Z,7.93
2022-09-11T21:09:05.769Z,8.37
2022-09-11T21:11:34.158Z,8.30
2022-09-11T21:14:02.053Z,8.47
2022-09-11T21:16:31.272Z,7.87
2022-09-11T21:19:01.936Z,8.80
2022-09-11T21:21:30.576Z,9.50
2022-09-11T21:23:59.339Z,9.17
2022-09-11T21:26:28.866Z,9.17
2022-09-11T21:28:57.997Z,10.87
2022-09-11T21:31:26.802Z,10.10
2022-09-11T21:33:55.858Z,10.33
2022-09-11T21:36:23.842Z,9.17
2022-09-11T21:38:51.510Z,9.37
2022-09-11T21:41:19.424Z,8.90
2022-09-11T21:43:47.505Z,10.23
2022-09-11T21:46:15.564Z,9.17
2022-09-11T21:48:43.285Z,9.67
2022-09-11T21:51:14.571Z,8.90
2022-09-11T21:53:44.122Z,8.80
2022-09-11T21:56:18.192Z,9.57
2022-09-11T21:58:46.011Z,10.13
2022-09-11T22:01:14.298Z,9.13
2022-09-11T22:03:42.010Z,9.70
2022-09-11T22:06:12.608Z,10.83
2022-09-11T22:08:42.728Z,9.10
2022-09-11T22:11:11.278Z,9.37
2022-09-11T22:13:39.547Z,8.73
2022-09-11T22:16:09.383Z,10.23
2022-09-11T22:18:37.623Z,9.60
2022-09-11T22:21:05.840Z,9.63
2022-09-11T22:23:35.139Z,10.50
2022-09-11T22:26:04.987Z,8.83
2022-09-11T22:28:32.639Z,9.73
2022-09-11T22:31:00.547Z,10.00
2022-09-11T22:33:28.152Z,10.43
2022-09-11T22:35:55.773Z,10.37
2022-09-11T22:38:23.814Z,10.27
2022-09-11T22:40:55.558Z,9.70
2022-09-11T22:43:23.230Z,10.30
2022-09-11T22:45:52.091Z,10.37
2022-09-11T22:48:20.063Z,10.37
2022-09-11T22:50:47.713Z,10.30
2022-09-11T22:53:15.547Z,9.00
2022-09-11T22:55:45.101Z,9.57
2022-09-11T22:58:14.640Z,9.50
2022-09-11T23:00:43.229Z,9.87
2022-09-11T23:03:11.214Z,10.10
2022-09-11T23:05:56.583Z,9.40
2022-09-11T23:08:28.341Z,8.87
2022-09-11T23:11:00.016Z,9.00
2022-09-11T23:13:29.998Z,8.60
2022-09-11T23:15:57.899Z,9.20
2022-09-11T23:18:26.352Z,8.73
2022-09-11T23:20:54.739Z,7.87
2022-09-11T23:23:22.728Z,8.17
2022-09-11T23:25:50.613Z,8.73
2022-09-11T23:28:18.905Z,8.73
2022-09-11T23:30:47.872Z,7.73
2022-09-11T23:33:15.480Z,8.07
2022-09-11T23:35:43.064Z,9.07
2022-09-11T23:38:10.694Z,9.27
2022-09-11T23:40:38.310Z,8.23
2022-09-11T23:43:05.868Z,8.70
2022-09-11T23:45:33.811Z,8.80
2022-09-11T23:48:03.577Z,8.40
2022-09-11T23:50:31.152Z,8.50
2022-09-11T23:52:58.856Z,8.40
2022-09-11T23:55:26.510Z,8.10
2022-09-11T23:57:55.233Z,8.40
